createdAt,value
2022-08-21T00:00:32.594Z,4.63
2022-08-21T00:03:05.351Z,5.10
2022-08-21T00:05:36.467Z,5.45
2022-08-21T00:08:04.381Z,5.60
2022-08-21T00:10:32.252Z,5.15
2022-08-21T00:13:00.772Z,4.77
2022-08-21T00:15:32.195Z,4.88
2022-08-21T00:18:00.274Z,5.00
2022-08-21T00:20:27.939Z,4.90
2022-08-21T00:22:57.329Z,4.80
2022-08-21T00:25:26.296Z,4.72
2022-08-21T00:27:54.449Z,5.10
2022-08-21T00:30:23.695Z,4.90
2022-08-21T00:32:52.741Z,5.00
2022-08-21T00:35:24.746Z,4.85
2022-08-21T00:37:52.036Z,4.50
2022-08-21T00:40:27.038Z,4.88
2022-08-21T00:42:54.420Z,4.40
2022-08-21T00:45:24.814Z,4.80
2022-08-21T00:47:53.331Z,4.82
2022-08-21T00:50:21.639Z,4.60
2022-08-21T00:52:52.269Z,4.67
2022-08-21T00:55:20.659Z,4.70
2022-08-21T00:57:53.017Z,4.57
2022-08-21T01:00:24.525Z,4.40
2022-08-21T01:02:51.750Z,3.65
2022-08-21T01:05:18.908Z,4.43
2022-08-21T01:07:46.329Z,4.03
2022-08-21T01:10:24.208Z,3.67
2022-08-21T01:12:56.689Z,3.80
2022-08-21T01:15:31.698Z,3.60
2022-08-21T01:17:58.990Z,3.28
2022-08-21T01:20:32.809Z,3.50
2022-08-21T01:23:02.560Z,3.47
2022-08-21T01:25:30.075Z,3.38
2022-08-21T01:27:59.975Z,3.40
2022-08-21T01:30:29.687Z,3.27
2022-08-21T01:32:57.701Z,3.10
2022-08-21T01:35:25.103Z,3.63
2022-08-21T01:37:52.384Z,3.30
2022-08-21T01:40:19.983Z,3.40
2022-08-21T01:42:47.354Z,3.10
2022-08-21T01:45:15.376Z,3.23
2022-08-21T01:47:43.681Z,3.00
2022-08-21T01:50:13.980Z,3.30
2022-08-21T01:52:42.089Z,3.15
2022-08-21T01:55:11.352Z,2.92
2022-08-21T01:57:39.021Z,3.60
2022-08-21T02:00:11.695Z,3.53
2022-08-21T02:02:42.272Z,3.13
2022-08-21T02:05:12.004Z,3.30
2022-08-21T02:07:41.902Z,3.20
2022-08-21T02:10:11.302Z,3.28
2022-08-21T02:12:38.475Z,3.45
2022-08-21T02:15:07.829Z,3.40
2022-08-21T02:17:49.310Z,3.50
2022-08-21T02:20:23.241Z,3.60
2022-08-21T02:22:50.545Z,3.83
2022-08-21T02:25:19.763Z,4.32
2022-08-21T02:27:48.721Z,6.43
2022-08-21T02:30:25.738Z,9.73
2022-08-21T02:32:53.122Z,8.15
2022-08-21T02:35:21.335Z,5.82
2022-08-21T02:37:52.253Z,4.25
2022-08-21T02:40:23.009Z,4.47
2022-08-21T02:42:50.678Z,4.70
2022-08-21T02:45:18.478Z,4.20
2022-08-21T02:47:50.942Z,4.75
2022-08-21T02:50:21.749Z,4.72
2022-08-21T02:52:51.927Z,4.90
2022-08-21T02:55:24.543Z,4.80
2022-08-21T02:57:51.736Z,5.07
2022-08-21T03:00:21.419Z,5.07
2022-08-21T03:02:50.210Z,5.40
2022-08-21T03:05:19.028Z,5.90
2022-08-21T03:07:47.969Z,5.75
2022-08-21T03:10:16.085Z,6.00
2022-08-21T03:12:43.904Z,5.80
2022-08-21T03:15:14.088Z,6.05
2022-08-21T03:17:41.407Z,5.80
2022-08-21T03:20:10.146Z,5.78
2022-08-21T03:22:37.502Z,6.05
2022-08-21T03:25:06.370Z,6.07
2022-08-21T03:27:34.952Z,6.00
2022-08-21T03:30:04.468Z,6.10
2022-08-21T03:32:32.398Z,6.30
2022-08-21T03:35:01.165Z,6.50
2022-08-21T03:37:28.774Z,6.47
2022-08-21T03:39:56.326Z,6.30
2022-08-21T03:42:24.149Z,6.43
2022-08-21T03:44:51.636Z,6.60
2022-08-21T03:47:18.960Z,6.78
2022-08-21T03:49:46.147Z,7.10
2022-08-21T03:52:13.349Z,7.53
2022-08-21T03:54:42.676Z,7.25
2022-08-21T03:57:11.415Z,7.32
2022-08-21T03:59:39.933Z,7.55
2022-08-21T04:02:08.143Z,7.50
2022-08-21T04:04:36.474Z,7.57
2022-08-21T04:07:04.773Z,7.22
2022-08-21T04:09:32.009Z,7.32
2022-08-21T04:12:00.524Z,7.28
2022-08-21T04:14:27.709Z,7.37
2022-08-21T04:16:55.061Z,7.22
2022-08-21T04:19:22.281Z,7.63
2022-08-21T04:21:50.560Z,7.10
2022-08-21T04:24:20.254Z,7.10
2022-08-21T04:26:48.067Z,7.15
2022-08-21T04:29:15.303Z,7.20
2022-08-21T04:31:44.482Z,7.55
2022-08-21T04:34:11.696Z,7.25
2022-08-21T04:36:38.949Z,6.88
2022-08-21T04:39:06.133Z,7.30
2022-08-21T04:41:37.363Z,6.88
2022-08-21T04:44:05.168Z,6.30
2022-08-21T04:46:32.382Z,6.45
2022-08-21T04:48:59.854Z,6.28
2022-08-21T04:51:33.055Z,5.90
2022-08-21T04:54:07.433Z,5.95
2022-08-21T04:57:00.508Z,5.70
2022-08-21T04:59:35.320Z,4.93
2022-08-21T05:02:03.930Z,4.60
2022-08-21T05:04:34.313Z,4.50
2022-08-21T05:07:06.918Z,4.13
2022-08-21T05:09:35.331Z,4.28
2022-08-21T05:12:03.634Z,4.18
2022-08-21T05:14:30.964Z,3.60
2022-08-21T05:16:58.120Z,3.60
2022-08-21T05:19:25.989Z,3.25
2022-08-21T05:21:53.173Z,3.20
2022-08-21T05:24:20.317Z,3.50
2022-08-21T05:26:47.730Z,3.42
2022-08-21T05:29:18.835Z,3.33
2022-08-21T05:31:47.409Z,3.70
2022-08-21T05:34:18.608Z,3.28
2022-08-21T05:36:46.574Z,3.58
2022-08-21T05:39:13.941Z,3.40
2022-08-21T05:41:41.802Z,3.20
2022-08-21T05:44:10.612Z,3.42
2022-08-21T05:46:39.227Z,3.00
2022-08-21T05:49:06.631Z,3.38
2022-08-21T05:51:33.861Z,3.10
2022-08-21T05:54:01.013Z,3.65
2022-08-21T05:56:28.205Z,3.85
2022-08-21T05:58:56.474Z,3.60
2022-08-21T06:01:23.674Z,4.05
2022-08-21T06:03:50.989Z,3.58
2022-08-21T06:06:18.602Z,3.70
2022-08-21T06:08:46.266Z,3.70
2022-08-21T06:11:13.617Z,3.30
2022-08-21T06:13:41.712Z,3.70
2022-08-21T06:16:16.083Z,3.60
2022-08-21T06:18:44.996Z,3.53
2022-08-21T06:21:14.291Z,3.53
2022-08-21T06:23:42.603Z,3.60
2022-08-21T06:26:10.514Z,3.78
2022-08-21T06:28:38.309Z,4.00
2022-08-21T06:31:31.904Z,3.80
2022-08-21T06:33:59.066Z,4.25
2022-08-21T06:36:26.278Z,3.60
2022-08-21T06:38:53.436Z,3.70
2022-08-21T06:41:24.353Z,4.18
2022-08-21T06:43:55.449Z,4.03
2022-08-21T06:46:23.969Z,4.18
2022-08-21T06:48:51.189Z,4.37
2022-08-21T06:51:18.498Z,4.03
2022-08-21T06:53:45.963Z,4.03
2022-08-21T06:56:13.737Z,4.22
2022-08-21T06:58:40.905Z,3.88
2022-08-21T07:01:08.277Z,4.53
2022-08-21T07:03:38.607Z,4.07
2022-08-21T07:06:08.029Z,4.40
2022-08-21T07:08:36.257Z,4.43
2022-08-21T07:11:09.899Z,4.13
2022-08-21T07:13:37.610Z,4.30
2022-08-21T07:16:04.971Z,4.10
2022-08-21T07:18:32.496Z,4.40
2022-08-21T07:21:04.283Z,4.10
2022-08-21T07:23:50.045Z,4.10
2022-08-21T07:26:20.838Z,4.43
2022-08-21T07:28:49.398Z,4.50
2022-08-21T07:31:19.281Z,4.63
2022-08-21T07:33:46.687Z,4.88
2022-08-21T07:36:14.148Z,5.00
2022-08-21T07:38:41.706Z,4.45
2022-08-21T07:41:15.747Z,4.22
2022-08-21T07:43:45.926Z,4.25
2022-08-21T07:46:14.260Z,4.60
2022-08-21T07:48:41.919Z,3.97
2022-08-21T07:51:12.884Z,4.35
2022-08-21T07:53:40.537Z,4.57
2022-08-21T07:56:11.773Z,4.32
2022-08-21T07:58:39.034Z,4.05
2022-08-21T08:01:07.484Z,4.40
2022-08-21T08:03:34.915Z,4.50
2022-08-21T08:06:13.134Z,4.27
2022-08-21T08:08:41.846Z,4.45
2022-08-21T08:11:13.109Z,4.45
2022-08-21T08:13:41.539Z,4.20
2022-08-21T08:16:09.165Z,4.53
2022-08-21T08:18:36.346Z,4.05
2022-08-21T08:21:04.239Z,4.30
2022-08-21T08:23:33.030Z,3.88
2022-08-21T08:26:00.938Z,4.07
2022-08-21T08:28:28.144Z,4.35
2022-08-21T08:30:56.200Z,4.47
2022-08-21T08:33:23.347Z,4.25
2022-08-21T08:35:51.669Z,3.60
2022-08-21T08:38:23.351Z,3.38
2022-08-21T08:41:07.323Z,3.40
2022-08-21T08:43:35.444Z,3.78
2022-08-21T08:46:10.754Z,4.00
2022-08-21T08:48:58.000Z,3.67
2022-08-21T08:51:46.003Z,3.42
2022-08-21T08:54:18.811Z,3.60
2022-08-21T08:56:46.835Z,3.60
2022-08-21T08:59:23.873Z,3.70
2022-08-21T09:01:52.301Z,3.65
2022-08-21T09:04:25.394Z,3.58
2022-08-21T09:07:14.294Z,3.28
2022-08-21T09:10:06.981Z,2.70
2022-08-21T09:12:52.923Z,2.92
2022-08-21T09:15:33.258Z,3.08
2022-08-21T09:18:20.658Z,3.30
2022-08-21T09:21:12.234Z,2.60
2022-08-21T09:24:13.806Z,2.95
2022-08-21T09:27:03.430Z,2.30
2022-08-21T09:29:35.441Z,2.40
2022-08-21T09:32:10.299Z,2.65
2022-08-21T09:34:37.482Z,2.42
2022-08-21T09:37:05.509Z,2.58
2022-08-21T09:39:42.602Z,2.70
2022-08-21T09:42:21.465Z,2.55
2022-08-21T09:44:48.688Z,2.22
2022-08-21T09:47:22.785Z,2.40
2022-08-21T09:49:53.426Z,2.40
2022-08-21T09:52:25.386Z,2.70
2022-08-21T09:54:55.863Z,2.50
2022-08-21T09:57:50.187Z,2.72
2022-08-21T10:00:30.882Z,2.67
2022-08-21T10:03:16.827Z,3.03
2022-08-21T10:06:19.877Z,3.10
2022-08-21T10:08:47.048Z,3.33
2022-08-21T10:11:16.936Z,3.15
2022-08-21T10:13:59.339Z,3.22
2022-08-21T10:17:03.167Z,3.03
2022-08-21T10:19:41.321Z,2.90
2022-08-21T10:22:08.447Z,3.10
2022-08-21T10:24:57.243Z,2.40
2022-08-21T10:27:36.730Z,2.70
2022-08-21T10:30:09.692Z,2.55
2022-08-21T10:32:52.404Z,2.67
2022-08-21T10:35:33.083Z,2.00
2022-08-21T10:38:48.760Z,2.10
2022-08-21T10:41:44.252Z,2.35
2022-08-21T10:44:19.779Z,2.20
2022-08-21T10:47:09.636Z,2.20
2022-08-21T10:50:00.202Z,2.00
2022-08-21T10:52:44.130Z,2.20
2022-08-21T10:55:42.823Z,2.45
2022-08-21T10:58:13.698Z,2.50
2022-08-21T11:00:48.076Z,2.50
2022-08-21T11:03:22.357Z,2.72
2022-08-21T11:05:54.353Z,2.37
2022-08-21T11:09:00.529Z,2.80
2022-08-21T11:11:36.137Z,2.70
2022-08-21T11:14:27.102Z,2.70
2022-08-21T11:17:06.131Z,3.15
2022-08-21T11:19:54.339Z,2.85
2022-08-21T11:22:52.595Z,2.50
2022-08-21T11:25:33.436Z,2.65
2022-08-21T11:28:20.305Z,2.55
2022-08-21T11:31:24.967Z,2.60
2022-08-21T11:34:20.889Z,2.47
2022-08-21T11:37:05.775Z,2.38
2022-08-21T11:40:06.509Z,2.60
2022-08-21T11:42:48.367Z,2.30
2022-08-21T11:45:44.309Z,1.90
2022-08-21T11:48:16.932Z,2.20
2022-08-21T11:50:46.401Z,2.20
2022-08-21T11:53:16.428Z,2.20
2022-08-21T11:55:43.534Z,2.20
2022-08-21T11:58:21.649Z,2.33
2022-08-21T12:00:56.094Z,2.05
2022-08-21T12:03:42.860Z,2.17
2022-08-21T12:06:13.421Z,2.70
2022-08-21T12:08:44.526Z,2.38
2022-08-21T12:11:32.095Z,2.63
2022-08-21T12:14:07.622Z,2.50
2022-08-21T12:16:38.416Z,2.58
2022-08-21T12:19:06.809Z,2.40
2022-08-21T12:21:35.114Z,2.20
2022-08-21T12:24:14.562Z,2.10
2022-08-21T12:26:54.631Z,2.08
2022-08-21T12:29:27.011Z,2.00
2022-08-21T12:32:10.784Z,2.00
2022-08-21T12:34:43.291Z,2.42
2022-08-21T12:37:23.774Z,1.85
2022-08-21T12:39:54.724Z,2.30
2022-08-21T12:42:25.514Z,2.00
2022-08-21T12:44:58.681Z,2.33
2022-08-21T12:47:34.393Z,2.70
2022-08-21T12:50:08.280Z,2.50
2022-08-21T12:52:41.812Z,2.72
2022-08-21T12:55:16.578Z,2.30
2022-08-21T12:57:43.885Z,2.40
2022-08-21T13:00:14.107Z,2.27
2022-08-21T13:02:48.822Z,2.23
2022-08-21T13:05:28.267Z,2.70
2022-08-21T13:07:55.847Z,2.28
2022-08-21T13:10:27.536Z,2.60
2022-08-21T13:12:58.436Z,2.38
2022-08-21T13:15:33.734Z,2.63
2022-08-21T13:18:05.295Z,2.60
2022-08-21T13:20:44.583Z,2.70
2022-08-21T13:23:28.437Z,2.42
2022-08-21T13:25:56.734Z,2.67
2022-08-21T13:28:25.017Z,2.58
2022-08-21T13:30:54.811Z,2.30
2022-08-21T13:33:36.321Z,2.78
2022-08-21T13:36:11.570Z,2.60
2022-08-21T13:38:42.681Z,2.30
2022-08-21T13:41:29.416Z,2.42
2022-08-21T13:44:19.931Z,2.20
2022-08-21T13:46:49.697Z,2.13
2022-08-21T13:49:20.010Z,2.17
2022-08-21T13:51:48.375Z,1.95
2022-08-21T13:54:28.338Z,2.00
2022-08-21T13:56:56.400Z,2.05
2022-08-21T13:59:33.580Z,2.00
2022-08-21T14:02:15.787Z,3.30
2022-08-21T14:04:53.170Z,1.77
2022-08-21T14:07:37.739Z,1.98
2022-08-21T14:10:16.050Z,1.83
2022-08-21T14:12:49.310Z,2.07
2022-08-21T14:15:19.383Z,1.83
2022-08-21T14:17:46.783Z,1.80
2022-08-21T14:20:31.137Z,1.80
2022-08-21T14:22:58.687Z,1.80
2022-08-21T14:25:28.527Z,1.73
2022-08-21T14:28:09.790Z,1.83
2022-08-21T14:30:43.522Z,1.53
2022-08-21T14:33:14.023Z,1.83
2022-08-21T14:35:42.208Z,1.70
2022-08-21T14:38:17.400Z,2.00
2022-08-21T14:40:47.800Z,1.70
2022-08-21T14:43:15.059Z,1.73
2022-08-21T14:45:42.261Z,1.70
2022-08-21T14:48:09.457Z,1.95
2022-08-21T14:50:36.689Z,1.92
2022-08-21T14:53:11.223Z,2.28
2022-08-21T14:55:59.356Z,1.97
2022-08-21T14:58:27.050Z,1.80
2022-08-21T15:00:55.655Z,2.00
2022-08-21T15:03:23.150Z,1.92
2022-08-21T15:05:50.829Z,1.80
2022-08-21T15:08:18.931Z,1.73
2022-08-21T15:11:10.075Z,1.73
2022-08-21T15:13:34.099Z,1.85
2022-08-21T15:16:01.715Z,2.10
2022-08-21T15:18:31.945Z,1.77
2022-08-21T15:20:59.392Z,1.80
2022-08-21T15:23:26.641Z,2.10
2022-08-21T15:25:54.223Z,1.90
2022-08-21T15:28:22.079Z,2.00
2022-08-21T15:30:49.729Z,1.93
2022-08-21T15:33:17.526Z,2.20
2022-08-21T15:35:46.917Z,2.00
2022-08-21T15:38:15.322Z,2.40
2022-08-21T15:40:47.850Z,2.00
2022-08-21T15:43:30.232Z,2.10
2022-08-21T15:46:00.543Z,1.77
2022-08-21T15:48:28.847Z,1.90
2022-08-21T15:50:56.087Z,1.80
2022-08-21T15:53:23.650Z,2.10
2022-08-21T15:55:50.872Z,2.20
2022-08-21T15:58:20.237Z,2.00
2022-08-21T16:00:47.961Z,1.90
2022-08-21T16:03:17.659Z,1.80
2022-08-21T16:05:45.880Z,1.95
2022-08-21T16:08:13.682Z,2.00
2022-08-21T16:10:41.369Z,2.00
2022-08-21T16:13:17.193Z,2.20
2022-08-21T16:15:44.503Z,2.00
2022-08-21T16:18:12.300Z,2.17
2022-08-21T16:20:39.557Z,1.75
2022-08-21T16:23:06.775Z,1.95
2022-08-21T16:25:37.527Z,2.15
2022-08-21T16:28:09.941Z,1.67
2022-08-21T16:30:39.699Z,1.98
2022-08-21T16:33:08.415Z,1.80
2022-08-21T16:35:37.972Z,2.35
2022-08-21T16:38:05.190Z,2.10
2022-08-21T16:40:32.521Z,1.90
2022-08-21T16:42:59.881Z,2.05
2022-08-21T16:45:31.208Z,2.00
2022-08-21T16:48:00.946Z,2.10
2022-08-21T16:50:28.579Z,2.10
2022-08-21T16:52:55.795Z,1.88
2022-08-21T16:55:22.986Z,1.98
2022-08-21T16:57:50.349Z,2.10
2022-08-21T17:00:17.788Z,2.25
2022-08-21T17:02:49.251Z,2.13
2022-08-21T17:05:16.911Z,1.77
2022-08-21T17:07:44.923Z,1.67
2022-08-21T17:10:15.239Z,1.95
2022-08-21T17:12:44.279Z,2.17
2022-08-21T17:15:21.686Z,1.88
2022-08-21T17:17:50.008Z,2.00
2022-08-21T17:20:17.849Z,1.95
2022-08-21T17:22:45.037Z,1.88
2022-08-21T17:25:12.230Z,2.20
2022-08-21T17:27:40.795Z,1.70
2022-08-21T17:30:08.869Z,2.10
2022-08-21T17:32:37.254Z,1.80
2022-08-21T17:35:05.070Z,2.00
2022-08-21T17:37:32.429Z,1.65
2022-08-21T17:40:01.326Z,1.88
2022-08-21T17:42:29.998Z,1.83
2022-08-21T17:44:57.559Z,1.75
2022-08-21T17:47:25.620Z,2.33
2022-08-21T17:49:53.180Z,2.17
2022-08-21T17:52:21.093Z,2.10
2022-08-21T17:54:48.276Z,2.00
2022-08-21T17:57:20.847Z,1.80
2022-08-21T17:59:52.370Z,1.90
2022-08-21T18:02:23.613Z,2.03
2022-08-21T18:04:51.631Z,2.03
2022-08-21T18:07:31.931Z,2.28
2022-08-21T18:10:07.356Z,2.03
2022-08-21T18:12:35.109Z,1.92
2022-08-21T18:15:02.458Z,2.10
2022-08-21T18:17:32.528Z,2.10
2022-08-21T18:20:00.301Z,2.00
2022-08-21T18:22:27.751Z,2.08
2022-08-21T18:24:54.943Z,2.00
2022-08-21T18:27:24.641Z,1.90
2022-08-21T18:29:58.290Z,2.20
2022-08-21T18:32:31.751Z,1.70
2022-08-21T18:35:01.683Z,2.00
2022-08-21T18:37:29.959Z,1.95
2022-08-21T18:39:57.182Z,1.80
2022-08-21T18:42:28.695Z,2.05
2022-08-21T18:45:01.056Z,2.25
2022-08-21T18:47:37.147Z,2.10
2022-08-21T18:50:10.906Z,2.10
2022-08-21T18:55:27.546Z,2.17
2022-08-21T18:57:57.338Z,2.15
2022-08-21T19:00:28.691Z,2.20
2022-08-21T19:02:58.691Z,1.80
2022-08-21T19:05:26.976Z,2.20
2022-08-21T19:07:55.196Z,2.25
2022-08-21T19:10:24.524Z,2.10
2022-08-21T19:12:58.075Z,2.00
2022-08-21T19:15:25.689Z,2.20
2022-08-21T19:17:54.381Z,2.05
2022-08-21T19:20:31.555Z,2.15
2022-08-21T19:22:58.748Z,2.45
2022-08-21T19:25:33.966Z,2.05
2022-08-21T19:31:05.795Z,2.00
2022-08-21T19:33:37.317Z,2.10
2022-08-21T19:36:06.002Z,2.20
2022-08-21T19:38:33.247Z,2.08
2022-08-21T19:41:02.005Z,2.30
2022-08-21T19:43:37.815Z,2.30
2022-08-21T19:46:05.158Z,2.50
2022-08-21T19:48:33.557Z,2.50
2022-08-21T19:51:00.826Z,2.35
2022-08-21T19:53:28.000Z,2.50
2022-08-21T19:55:55.209Z,1.90
2022-08-21T19:58:42.802Z,2.40
2022-08-21T20:01:16.885Z,2.35
2022-08-21T20:03:53.866Z,2.60
2022-08-21T20:06:24.258Z,2.50
2022-08-21T20:08:54.526Z,2.20
2022-08-21T20:11:41.793Z,2.33
2022-08-21T20:14:12.237Z,2.20
2022-08-21T20:16:44.667Z,2.50
2022-08-21T20:19:11.967Z,2.40
2022-08-21T20:21:44.344Z,2.08
2022-08-21T20:24:15.481Z,2.20
2022-08-21T20:26:48.772Z,2.28
2022-08-21T20:29:24.586Z,2.23
2022-08-21T20:32:12.113Z,2.20
2022-08-21T20:34:41.254Z,2.70
2022-08-21T20:37:12.624Z,2.58
2022-08-21T20:39:41.008Z,2.33
2022-08-21T20:42:11.059Z,2.63
2022-08-21T20:44:46.782Z,2.35
2022-08-21T20:47:15.645Z,2.50
2022-08-21T20:49:47.859Z,2.10
2022-08-21T20:52:20.496Z,2.33
2022-08-21T20:54:53.921Z,2.22
2022-08-21T20:57:33.754Z,2.37
2022-08-21T21:00:14.977Z,2.20
2022-08-21T21:03:00.944Z,2.50
2022-08-21T21:05:38.321Z,2.10
2022-08-21T21:08:19.979Z,2.10
2022-08-21T21:11:08.058Z,2.20
2022-08-21T21:13:53.004Z,2.65
2022-08-21T21:16:29.803Z,2.20
2022-08-21T21:19:05.051Z,2.08
2022-08-21T21:21:41.051Z,2.00
2022-08-21T21:24:17.068Z,2.45
2022-08-21T21:27:11.623Z,2.50
2022-08-21T21:29:44.700Z,2.42
2022-08-21T21:32:18.373Z,2.70
2022-08-21T21:34:46.749Z,2.15
2022-08-21T21:37:25.371Z,2.42
2022-08-21T21:40:23.621Z,2.40
2022-08-21T21:43:08.735Z,2.42
2022-08-21T21:45:49.446Z,2.40
2022-08-21T21:48:39.790Z,2.60
2022-08-21T21:51:32.406Z,2.43
2022-08-21T21:54:33.411Z,2.28
2022-08-21T21:57:21.494Z,2.78
2022-08-21T22:00:16.064Z,2.50
2022-08-21T22:03:16.474Z,2.28
2022-08-21T22:05:57.508Z,2.42
2022-08-21T22:08:48.863Z,2.40
2022-08-21T22:11:29.465Z,2.30
2022-08-21T22:16:54.270Z,2.10
2022-08-21T22:19:30.809Z,2.30
2022-08-21T22:22:13.492Z,2.60
2022-08-21T22:24:47.875Z,2.60
2022-08-21T22:27:28.877Z,2.60
2022-08-21T22:30:01.405Z,3.05
2022-08-21T22:32:37.553Z,3.23
2022-08-21T22:35:21.323Z,5.03
2022-08-21T22:37:52.998Z,2.83
2022-08-21T22:40:30.370Z,2.77
2022-08-21T22:43:16.365Z,3.23
2022-08-21T22:46:06.894Z,2.97
2022-08-21T22:48:53.065Z,2.83
2022-08-21T22:51:42.025Z,2.80
2022-08-21T22:54:21.642Z,2.70
2022-08-21T22:57:00.138Z,2.70
2022-08-21T22:59:30.174Z,3.05
2022-08-21T23:02:03.670Z,2.53
2022-08-21T23:04:32.027Z,2.97
2022-08-21T23:07:02.958Z,2.47
2022-08-21T23:09:34.698Z,2.53
2022-08-21T23:12:34.995Z,2.60
2022-08-21T23:15:10.585Z,2.30
2022-08-21T23:18:04.477Z,2.78
2022-08-21T23:20:57.699Z,2.10
2022-08-21T23:23:29.403Z,2.10
2022-08-21T23:26:30.896Z,2.40
2022-08-21T23:28:58.041Z,2.60
2022-08-21T23:31:32.543Z,2.33
2022-08-21T23:34:19.708Z,2.70
2022-08-21T23:37:23.145Z,2.40
2022-08-21T23:40:16.448Z,2.33
2022-08-21T23:43:03.219Z,2.47
2022-08-21T23:48:53.821Z,2.30
2022-08-21T23:51:35.980Z,2.38
2022-08-21T23:54:44.808Z,2.10
2022-08-21T23:57:31.889Z,2.20
